Brendan Turecamo — WDB9024 — position and weather

sailwx.info

Track history (hours):
 
Tides and Currents Weather Stations Pressure Air Temp Water Temp Dewpoint Dewpoint Depression Visibility Wind Speed Wind Dir Waves Ship Positions

Brendan Turecamo

Owner: Moran Towing Corporation, New Canaan, CT. More information available from US FCC via Universal Licensing System and Coast Guard Vessel Documentation Center.

Last reported at 2018-Jun-25 17:00 UTC. Time now 2018-Jun-25 19:46 UTC.
Position N 40°39' W 074°08'.

Length 33 m; draft 4.5 m.

Type: Tug. MMSI: 366946760.

Date/timePositionNaut miles runAvg speedWind from/ knotsBaromVisibWave heightAir tempDewpointWater temp
2018-Jun-25 17:00N 40°39' W 074°08'0 0.0
2018-Jun-25 13:08N 40°38' W 074°08'0 0.7
2018-Jun-25 13:00N 40°39' W 074°08'1 2.9
2018-Jun-25 12:30N 40°40' W 074°09'1 1.5
2018-Jun-25 12:00N 40°39' W 074°09'2 4.6
2018-Jun-25 11:30N 40°39' W 074°06'2 4.5
2018-Jun-25 11:00N 40°38' W 074°03'2 0.1
2018-Jun-24 03:49N 40°39' W 074°06'1 1.6
2018-Jun-24 03:29N 40°39' W 074°07'2 3.1
2018-Jun-24 02:59N 40°39' W 074°09'1 2.9
2018-Jun-24 02:30N 40°41' W 074°08'0 0.2
2018-Jun-24 02:00N 40°40' W 074°08'0 0.0
2018-Jun-24 01:30N 40°40' W 074°08'2 4.0
2018-Jun-24 01:00N 40°39' W 074°09'2 3.9
2018-Jun-24 00:30N 40°40' W 074°08'1 1.6
2018-Jun-24 00:00N 40°41' W 074°09'2 4.4
2018-Jun-23 23:30N 40°39' W 074°09'1 0.2
2018-Jun-23 19:48N 40°38' W 074°08'2 6.9
2018-Jun-23 19:30N 40°39' W 074°05'3 5.8
2018-Jun-23 19:00N 40°39' W 074°09'2 4.7
2018-Jun-23 18:30N 40°41' W 074°09'1 1.3
2018-Jun-23 18:00N 40°40' W 074°08'2 0.5
2018-Jun-23 14:07N 40°38' W 074°08'0 0.0
2018-Jun-23 13:49N 40°38' W 074°08'0 0.0
2018-Jun-23 13:19N 40°38' W 074°08'0 0.0
2018-Jun-23 12:55N 40°38' W 074°08'0 0.0
2018-Jun-23 12:19N 40°38' W 074°08'0 0.0
2018-Jun-23 11:55N 40°38' W 074°08'0 0.0
2018-Jun-23 11:25N 40°38' W 074°08'0 0.0
2018-Jun-23 10:49N 40°38' W 074°08'0 0.0
2018-Jun-23 10:07N 40°38' W 074°08'0 0.0
2018-Jun-23 08:19N 40°38' W 074°08'0 0.0
2018-Jun-23 07:49N 40°38' W 074°08'0 0.0
2018-Jun-23 05:42N 40°38' W 074°08'2 6.6
2018-Jun-23 05:28N 40°39' W 074°06'2 4.4
2018-Jun-23 05:00N 40°39' W 074°03'1 2.7
2018-Jun-23 04:30N 40°40' W 074°05'0 0.2
2018-Jun-23 04:01N 40°40' W 074°05'3 5.3
2018-Jun-23 03:29N 40°39' W 074°08'0 0.1
2018-Jun-23 02:31N 40°38' W 074°08'0 0.0
2018-Jun-23 02:08N 40°38' W 074°08'0 1.2
2018-Jun-23 01:59N 40°39' W 074°08'3 3.3
2018-Jun-23 01:11N 40°41' W 074°09'0 0.6
2018-Jun-23 00:58N 40°41' W 074°09'2 3.9
2018-Jun-23 00:20N 40°39' W 074°08'2 5.9
2018-Jun-22 23:57N 40°39' W 074°06'3 7.0
2018-Jun-22 23:30N 40°37' W 074°03'4 8.5
2018-Jun-22 23:00N 40°38' W 074°08'0 0.1
2018-Jun-22 22:18N 40°38' W 074°08'1 4.5
2018-Jun-22 22:00N 40°40' W 074°09'0 0.3
2018-Jun-22 21:07N 40°40' W 074°09'1 8.3
2018-Jun-22 21:01N 40°39' W 074°09'1 1.4
2018-Jun-22 20:23N 40°38' W 074°08'0 0.0
2018-Jun-22 19:59N 40°38' W 074°08'0 0.0
2018-Jun-22 19:29N 40°38' W 074°08'0 0.0
2018-Jun-22 18:50N 40°38' W 074°08'0 0.0
2018-Jun-22 18:23N 40°38' W 074°08'0 0.0
2018-Jun-22 17:35N 40°38' W 074°08'0 0.0
2018-Jun-22 17:29N 40°38' W 074°08'0 0.0
2018-Jun-22 16:53N 40°38' W 074°08'0 0.0
2018-Jun-22 16:22N 40°38' W 074°08'0 0.0
2018-Jun-22 15:58N 40°38' W 074°08'0 0.0
2018-Jun-22 15:28N 40°38' W 074°08'0 0.0
2018-Jun-22 14:55N 40°38' W 074°08'0 0.0
2018-Jun-22 14:28N 40°38' W 074°08'0 0.0
2018-Jun-22 13:52N 40°38' W 074°08'0 0.0
2018-Jun-22 13:28N 40°38' W 074°08'0 0.0
2018-Jun-22 12:58N 40°38' W 074°08'0 0.0
2018-Jun-22 12:28N 40°38' W 074°08'0 0.0
2018-Jun-22 11:58N 40°38' W 074°08'0 0.0
2018-Jun-22 11:28N 40°38' W 074°08'0 0.0
2018-Jun-22 10:52N 40°38' W 074°08'2 6.0
2018-Jun-22 10:30N 40°41' W 074°08'1 2.6
2018-Jun-22 10:00N 40°42' W 074°09'1 1.5
2018-Jun-22 09:30N 40°41' W 074°08'2 3.4
2018-Jun-22 09:00N 40°40' W 074°08'2 4.5
2018-Jun-22 08:29N 40°39' W 074°06'2 4.5
2018-Jun-22 08:00N 40°38' W 074°03'2 0.6
2018-Jun-22 04:27N 40°39' W 074°06'2 3.0
2018-Jun-22 03:57N 40°40' W 074°04'1 2.6
2018-Jun-22 03:30N 40°39' W 074°04'4 7.6
2018-Jun-22 03:00N 40°38' W 074°09'3 2.6
2018-Jun-22 01:44N 40°42' W 074°09'0 0.1
2018-Jun-21 21:29N 40°42' W 074°08'3 5.8
2018-Jun-21 20:59N 40°39' W 074°08'3 6.9
2018-Jun-21 20:30N 40°39' W 074°04'3 6.0
2018-Jun-21 20:00N 40°41' W 074°01'0 0.5
2018-Jun-21 19:30N 40°41' W 074°01'510.7
2018-Jun-21 19:00N 40°39' W 074°07'1 0.3
2018-Jun-21 17:12N 40°38' W 074°08'1 2.5
2018-Jun-21 17:00N 40°39' W 074°08'2 0.8
2018-Jun-21 14:24N 40°39' W 074°11'3 5.6
2018-Jun-21 13:54N 40°41' W 074°09'0 0.9
2018-Jun-21 13:30N 40°41' W 074°09'2 3.9
2018-Jun-21 12:57N 40°39' W 074°09'1 0.5
2018-Jun-21 11:48N 40°38' W 074°08'0 0.1
2018-Jun-21 11:13N 40°38' W 074°08'2 8.8
2018-Jun-21 11:00N 40°39' W 074°05'510.8
2018-Jun-21 10:30N 40°43' W 074°01'3 5.6
2018-Jun-21 09:59N 40°46' W 074°00'1 1.8
2018-Jun-21 09:31N 40°45' W 074°01'0 0.6
2018-Jun-21 08:59N 40°45' W 074°01'3 5.9
2018-Jun-21 08:30N 40°42' W 074°01'1 2.5
2018-Jun-21 08:00N 40°41' W 074°01'1 2.2
2018-Jun-21 07:30N 40°41' W 074°02'3 5.1
2018-Jun-21 07:00N 40°39' W 074°04'4 5.7
2018-Jun-21 06:23N 40°40' W 074°08'2 5.2
2018-Jun-21 06:00N 40°42' W 074°09'2 2.3
2018-Jun-21 05:17N 40°40' W 074°08'2 0.9
2018-Jun-21 03:16N 40°38' W 074°08'0 0.0
2018-Jun-21 02:46N 40°38' W 074°08'0 0.0
2018-Jun-20 22:37N 40°38' W 074°08'0 0.0
2018-Jun-20 22:16N 40°38' W 074°08'0 0.8
2018-Jun-20 22:00N 40°39' W 074°08'2 4.1
2018-Jun-20 21:30N 40°41' W 074°08'0 0.5
2018-Jun-20 20:59N 40°41' W 074°09'2 4.3
2018-Jun-20 20:24N 40°39' W 074°07'0 0.2
2018-Jun-20 20:00N 40°39' W 074°07'2 2.4
2018-Jun-20 19:22N 40°40' W 074°09'1 2.3
2018-Jun-20 19:00N 40°40' W 074°08'0 0.9
2018-Jun-20 18:30N 40°41' W 074°09'2 3.4
2018-Jun-20 18:00N 40°39' W 074°09'5 9.2
2018-Jun-20 17:30N 40°40' W 074°03'3 5.6
2018-Jun-20 17:00N 40°39' W 074°07'1 1.1
2018-Jun-20 16:05N 40°38' W 074°08'0 3.4
2018-Jun-20 16:00N 40°39' W 074°08'2 0.7
2018-Jun-20 12:25N 40°39' W 074°11'3 0.2
2018-Jun-20 00:28N 40°38' W 074°08'2 4.0
2018-Jun-20 00:00N 40°40' W 074°08'2 3.4
2018-Jun-19 23:31N 40°39' W 074°08'3 5.7
2018-Jun-19 23:00N 40°39' W 074°05'1 2.8
2018-Jun-19 22:30N 40°38' W 074°04'4 6.8
2018-Jun-19 21:52N 40°40' W 074°08'0 1.3
2018-Jun-19 21:30N 40°40' W 074°09'0 0.4
2018-Jun-19 21:00N 40°40' W 074°09'2 3.2
2018-Jun-19 20:28N 40°39' W 074°07'3 5.9
2018-Jun-19 20:00N 40°38' W 074°03'5 9.4
2018-Jun-19 19:28N 40°39' W 074°10'3 0.2
2018-Jun-19 00:32N 40°39' W 074°06'0 1.1
2018-Jun-19 00:11N 40°39' W 074°05'1 5.5
2018-Jun-19 00:00N 40°39' W 074°04'1 2.2
2018-Jun-18 23:28N 40°38' W 074°04'3 2.3
2018-Jun-18 22:05N 40°38' W 074°08'1 9.0
2018-Jun-18 22:00N 40°39' W 074°09'2 2.3
2018-Jun-18 21:03N 40°41' W 074°09'0 3.3
2018-Jun-18 21:00N 40°41' W 074°08'2 3.9
2018-Jun-18 20:29N 40°39' W 074°09'2 4.6
2018-Jun-18 19:59N 40°39' W 074°06'3 5.3
2018-Jun-18 19:30N 40°37' W 074°03'3 6.3
2018-Jun-18 19:01N 40°39' W 074°07'1 0.3
2018-Jun-18 17:34N 40°39' W 074°07'1 0.2
2018-Jun-18 13:49N 40°39' W 074°07'1 0.2
2018-Jun-18 08:19N 40°38' W 074°08'0 0.0
2018-Jun-18 07:26N 40°38' W 074°08'0 0.2
2018-Jun-18 05:12N 40°39' W 074°08'1 0.3
2018-Jun-18 03:31N 40°38' W 074°08'0 2.8
2018-Jun-18 03:29N 40°39' W 074°08'0 0.0
2018-Jun-17 22:35N 40°38' W 074°08'1 8.8
2018-Jun-17 22:30N 40°39' W 074°09'1 1.6
2018-Jun-17 21:44N 40°40' W 074°09'0 0.1
2018-Jun-17 16:05N 40°40' W 074°08'1 6.4
2018-Jun-17 15:59N 40°41' W 074°08'1 0.5
2018-Jun-17 15:00N 40°41' W 074°09'3 0.2
2018-Jun-17 03:54N 40°39' W 074°08'1 0.2
2018-Jun-17 00:34N 40°39' W 074°08'1 6.3
2018-Jun-17 00:25N 40°39' W 074°07'0 0.2
2018-Jun-16 22:43N 40°39' W 074°08'1 4.3
2018-Jun-16 22:28N 40°39' W 074°09'2 2.6
2018-Jun-16 21:36N 40°42' W 074°08'0 0.2
2018-Jun-16 21:17N 40°42' W 074°08'3 0.6
2018-Jun-16 15:56N 40°39' W 074°08'0 0.0
2018-Jun-16 11:28N 40°39' W 074°08'3 7.3
2018-Jun-16 11:00N 40°39' W 074°03'2 3.8
2018-Jun-16 10:30N 40°40' W 074°05'0 0.5
2018-Jun-16 09:58N 40°40' W 074°05'0 0.7
2018-Jun-16 09:30N 40°40' W 074°05'3 0.2
2018-Jun-15 18:19N 40°38' W 074°08'  
Track history (hours):
 
Tides and Currents Weather Stations Pressure Air Temp Water Temp Dewpoint Dewpoint Depression Visibility Wind Speed Wind Dir Waves Ship Positions

Brendan Turecamo

Owner: Moran Towing Corporation, New Canaan, CT. More information available from US FCC via Universal Licensing System and Coast Guard Vessel Documentation Center.

Last reported at 2018-Jun-25 17:00 UTC. Time now 2018-Jun-25 19:46 UTC.
Position N 40°39' W 074°08'.

Length 33 m; draft 4.5 m.

Type: Tug. MMSI: 366946760.

Date/timePositionNaut miles runAvg speedWind from/ knotsBaromVisibWave heightAir tempDewpointWater temp
2018-Jun-25 17:00N 40°39' W 074°08'0 0.0
2018-Jun-25 13:08N 40°38' W 074°08'0 0.7
2018-Jun-25 13:00N 40°39' W 074°08'1 2.9
2018-Jun-25 12:30N 40°40' W 074°09'1 1.5
2018-Jun-25 12:00N 40°39' W 074°09'2 4.6
2018-Jun-25 11:30N 40°39' W 074°06'2 4.5
2018-Jun-25 11:00N 40°38' W 074°03'2 0.1
2018-Jun-24 03:49N 40°39' W 074°06'1 1.6
2018-Jun-24 03:29N 40°39' W 074°07'2 3.1
2018-Jun-24 02:59N 40°39' W 074°09'1 2.9
2018-Jun-24 02:30N 40°41' W 074°08'0 0.2
2018-Jun-24 02:00N 40°40' W 074°08'0 0.0
2018-Jun-24 01:30N 40°40' W 074°08'2 4.0
2018-Jun-24 01:00N 40°39' W 074°09'2 3.9
2018-Jun-24 00:30N 40°40' W 074°08'1 1.6
2018-Jun-24 00:00N 40°41' W 074°09'2 4.4
2018-Jun-23 23:30N 40°39' W 074°09'1 0.2
2018-Jun-23 19:48N 40°38' W 074°08'2 6.9
2018-Jun-23 19:30N 40°39' W 074°05'3 5.8
2018-Jun-23 19:00N 40°39' W 074°09'2 4.7
2018-Jun-23 18:30N 40°41' W 074°09'1 1.3
2018-Jun-23 18:00N 40°40' W 074°08'2 0.5
2018-Jun-23 14:07N 40°38' W 074°08'0 0.0
2018-Jun-23 13:49N 40°38' W 074°08'0 0.0
2018-Jun-23 13:19N 40°38' W 074°08'0 0.0
2018-Jun-23 12:55N 40°38' W 074°08'0 0.0
2018-Jun-23 12:19N 40°38' W 074°08'0 0.0
2018-Jun-23 11:55N 40°38' W 074°08'0 0.0
2018-Jun-23 11:25N 40°38' W 074°08'0 0.0
2018-Jun-23 10:49N 40°38' W 074°08'0 0.0
2018-Jun-23 10:07N 40°38' W 074°08'0 0.0
2018-Jun-23 08:19N 40°38' W 074°08'0 0.0
2018-Jun-23 07:49N 40°38' W 074°08'0 0.0
2018-Jun-23 05:42N 40°38' W 074°08'2 6.6
2018-Jun-23 05:28N 40°39' W 074°06'2 4.4
2018-Jun-23 05:00N 40°39' W 074°03'1 2.7
2018-Jun-23 04:30N 40°40' W 074°05'0 0.2
2018-Jun-23 04:01N 40°40' W 074°05'3 5.3
2018-Jun-23 03:29N 40°39' W 074°08'0 0.1
2018-Jun-23 02:31N 40°38' W 074°08'0 0.0
2018-Jun-23 02:08N 40°38' W 074°08'0 1.2
2018-Jun-23 01:59N 40°39' W 074°08'3 3.3
2018-Jun-23 01:11N 40°41' W 074°09'0 0.6
2018-Jun-23 00:58N 40°41' W 074°09'2 3.9
2018-Jun-23 00:20N 40°39' W 074°08'2 5.9
2018-Jun-22 23:57N 40°39' W 074°06'3 7.0
2018-Jun-22 23:30N 40°37' W 074°03'4 8.5
2018-Jun-22 23:00N 40°38' W 074°08'0 0.1
2018-Jun-22 22:18N 40°38' W 074°08'1 4.5
2018-Jun-22 22:00N 40°40' W 074°09'0 0.3
2018-Jun-22 21:07N 40°40' W 074°09'1 8.3
2018-Jun-22 21:01N 40°39' W 074°09'1 1.4
2018-Jun-22 20:23N 40°38' W 074°08'0 0.0
2018-Jun-22 19:59N 40°38' W 074°08'0 0.0
2018-Jun-22 19:29N 40°38' W 074°08'0 0.0
2018-Jun-22 18:50N 40°38' W 074°08'0 0.0
2018-Jun-22 18:23N 40°38' W 074°08'0 0.0
2018-Jun-22 17:35N 40°38' W 074°08'0 0.0
2018-Jun-22 17:29N 40°38' W 074°08'0 0.0
2018-Jun-22 16:53N 40°38' W 074°08'0 0.0
2018-Jun-22 16:22N 40°38' W 074°08'0 0.0
2018-Jun-22 15:58N 40°38' W 074°08'0 0.0
2018-Jun-22 15:28N 40°38' W 074°08'0 0.0
2018-Jun-22 14:55N 40°38' W 074°08'0 0.0
2018-Jun-22 14:28N 40°38' W 074°08'0 0.0
2018-Jun-22 13:52N 40°38' W 074°08'0 0.0
2018-Jun-22 13:28N 40°38' W 074°08'0 0.0
2018-Jun-22 12:58N 40°38' W 074°08'0 0.0
2018-Jun-22 12:28N 40°38' W 074°08'0 0.0
2018-Jun-22 11:58N 40°38' W 074°08'0 0.0
2018-Jun-22 11:28N 40°38' W 074°08'0 0.0
2018-Jun-22 10:52N 40°38' W 074°08'2 6.0
2018-Jun-22 10:30N 40°41' W 074°08'1 2.6
2018-Jun-22 10:00N 40°42' W 074°09'1 1.5
2018-Jun-22 09:30N 40°41' W 074°08'2 3.4
2018-Jun-22 09:00N 40°40' W 074°08'2 4.5
2018-Jun-22 08:29N 40°39' W 074°06'2 4.5
2018-Jun-22 08:00N 40°38' W 074°03'2 0.6
2018-Jun-22 04:27N 40°39' W 074°06'2 3.0
2018-Jun-22 03:57N 40°40' W 074°04'1 2.6
2018-Jun-22 03:30N 40°39' W 074°04'4 7.6
2018-Jun-22 03:00N 40°38' W 074°09'3 2.6
2018-Jun-22 01:44N 40°42' W 074°09'0 0.1
2018-Jun-21 21:29N 40°42' W 074°08'3 5.8
2018-Jun-21 20:59N 40°39' W 074°08'3 6.9
2018-Jun-21 20:30N 40°39' W 074°04'3 6.0
2018-Jun-21 20:00N 40°41' W 074°01'0 0.5
2018-Jun-21 19:30N 40°41' W 074°01'510.7
2018-Jun-21 19:00N 40°39' W 074°07'1 0.3
2018-Jun-21 17:12N 40°38' W 074°08'1 2.5
2018-Jun-21 17:00N 40°39' W 074°08'2 0.8
2018-Jun-21 14:24N 40°39' W 074°11'3 5.6
2018-Jun-21 13:54N 40°41' W 074°09'0 0.9
2018-Jun-21 13:30N 40°41' W 074°09'2 3.9
2018-Jun-21 12:57N 40°39' W 074°09'1 0.5
2018-Jun-21 11:48N 40°38' W 074°08'0 0.1
2018-Jun-21 11:13N 40°38' W 074°08'2 8.8
2018-Jun-21 11:00N 40°39' W 074°05'510.8
2018-Jun-21 10:30N 40°43' W 074°01'3 5.6
2018-Jun-21 09:59N 40°46' W 074°00'1 1.8
2018-Jun-21 09:31N 40°45' W 074°01'0 0.6
2018-Jun-21 08:59N 40°45' W 074°01'3 5.9
2018-Jun-21 08:30N 40°42' W 074°01'1 2.5
2018-Jun-21 08:00N 40°41' W 074°01'1 2.2
2018-Jun-21 07:30N 40°41' W 074°02'3 5.1
2018-Jun-21 07:00N 40°39' W 074°04'4 5.7
2018-Jun-21 06:23N 40°40' W 074°08'2 5.2
2018-Jun-21 06:00N 40°42' W 074°09'2 2.3
2018-Jun-21 05:17N 40°40' W 074°08'2 0.9
2018-Jun-21 03:16N 40°38' W 074°08'0 0.0
2018-Jun-21 02:46N 40°38' W 074°08'0 0.0
2018-Jun-20 22:37N 40°38' W 074°08'0 0.0
2018-Jun-20 22:16N 40°38' W 074°08'0 0.8
2018-Jun-20 22:00N 40°39' W 074°08'2 4.1
2018-Jun-20 21:30N 40°41' W 074°08'0 0.5
2018-Jun-20 20:59N 40°41' W 074°09'2 4.3
2018-Jun-20 20:24N 40°39' W 074°07'0 0.2
2018-Jun-20 20:00N 40°39' W 074°07'2 2.4
2018-Jun-20 19:22N 40°40' W 074°09'1 2.3
2018-Jun-20 19:00N 40°40' W 074°08'0 0.9
2018-Jun-20 18:30N 40°41' W 074°09'2 3.4
2018-Jun-20 18:00N 40°39' W 074°09'5 9.2
2018-Jun-20 17:30N 40°40' W 074°03'3 5.6
2018-Jun-20 17:00N 40°39' W 074°07'1 1.1
2018-Jun-20 16:05N 40°38' W 074°08'0 3.4
2018-Jun-20 16:00N 40°39' W 074°08'2 0.7
2018-Jun-20 12:25N 40°39' W 074°11'3 0.2
2018-Jun-20 00:28N 40°38' W 074°08'2 4.0
2018-Jun-20 00:00N 40°40' W 074°08'2 3.4
2018-Jun-19 23:31N 40°39' W 074°08'3 5.7
2018-Jun-19 23:00N 40°39' W 074°05'1 2.8
2018-Jun-19 22:30N 40°38' W 074°04'4 6.8
2018-Jun-19 21:52N 40°40' W 074°08'0 1.3
2018-Jun-19 21:30N 40°40' W 074°09'0 0.4
2018-Jun-19 21:00N 40°40' W 074°09'2 3.2
2018-Jun-19 20:28N 40°39' W 074°07'3 5.9
2018-Jun-19 20:00N 40°38' W 074°03'5 9.4
2018-Jun-19 19:28N 40°39' W 074°10'3 0.2
2018-Jun-19 00:32N 40°39' W 074°06'0 1.1
2018-Jun-19 00:11N 40°39' W 074°05'1 5.5
2018-Jun-19 00:00N 40°39' W 074°04'1 2.2
2018-Jun-18 23:28N 40°38' W 074°04'3 2.3
2018-Jun-18 22:05N 40°38' W 074°08'1 9.0
2018-Jun-18 22:00N 40°39' W 074°09'2 2.3
2018-Jun-18 21:03N 40°41' W 074°09'0 3.3
2018-Jun-18 21:00N 40°41' W 074°08'2 3.9
2018-Jun-18 20:29N 40°39' W 074°09'2 4.6
2018-Jun-18 19:59N 40°39' W 074°06'3 5.3
2018-Jun-18 19:30N 40°37' W 074°03'3 6.3
2018-Jun-18 19:01N 40°39' W 074°07'1 0.3
2018-Jun-18 17:34N 40°39' W 074°07'1 0.2
2018-Jun-18 13:49N 40°39' W 074°07'1 0.2
2018-Jun-18 08:19N 40°38' W 074°08'0 0.0
2018-Jun-18 07:26N 40°38' W 074°08'0 0.2
2018-Jun-18 05:12N 40°39' W 074°08'1 0.3
2018-Jun-18 03:31N 40°38' W 074°08'0 2.8
2018-Jun-18 03:29N 40°39' W 074°08'0 0.0
2018-Jun-17 22:35N 40°38' W 074°08'1 8.8
2018-Jun-17 22:30N 40°39' W 074°09'1 1.6
2018-Jun-17 21:44N 40°40' W 074°09'0 0.1
2018-Jun-17 16:05N 40°40' W 074°08'1 6.4
2018-Jun-17 15:59N 40°41' W 074°08'1 0.5
2018-Jun-17 15:00N 40°41' W 074°09'3 0.2
2018-Jun-17 03:54N 40°39' W 074°08'1 0.2
2018-Jun-17 00:34N 40°39' W 074°08'1 6.3
2018-Jun-17 00:25N 40°39' W 074°07'0 0.2
2018-Jun-16 22:43N 40°39' W 074°08'1 4.3
2018-Jun-16 22:28N 40°39' W 074°09'2 2.6
2018-Jun-16 21:36N 40°42' W 074°08'0 0.2
2018-Jun-16 21:17N 40°42' W 074°08'3 0.6
2018-Jun-16 15:56N 40°39' W 074°08'0 0.0
2018-Jun-16 11:28N 40°39' W 074°08'3 7.3
2018-Jun-16 11:00N 40°39' W 074°03'2 3.8
2018-Jun-16 10:30N 40°40' W 074°05'0 0.5
2018-Jun-16 09:58N 40°40' W 074°05'0 0.7
2018-Jun-16 09:30N 40°40' W 074°05'3 0.2
2018-Jun-15 18:19N 40°38' W 074°08'  

Dump ship's entire track history